Montana Mines, WV (26586)

8:11 PM EDT on August 21, 2014 (GMT -0400)
N8TJD's WX Station. Stony Rd/Pinchgut Hollow. | Change Station
CLOSE
Current Station
Personal Weather Station
Location: Fairmont, WV
Elevation: 1283 ft
Nearby Weather Stations

Elev 1283 ft 39.46 °N, 80.12 °W | Updated 3 seconds ago

Mostly Cloudy
Mostly Cloudy
73.6 °F
Feels Like 73.6 °F
N
0.0
Wind Variable Wind from WSW
Gusts 0.0 mph

Today
High -- | Low -- °F
--% Chance of Precip.
Yesterday
High -- | Low -- °F
Precip. -- in
6:38 AM 8:07 PM
Waning Crescent, 11% visible
Pressure 30.06 in
Visibility 10.0 miles
Clouds Mostly Cloudy 4300 ft
Mostly Cloudy 7000 ft
Dew Point 73 °F
Humidity 97%
Rainfall 0.12 in
Snow Depth Not available.
UV 0 out of 12
Pollen 9.00 out of 12
Air Quality Not available.
Flu Activity Not available.
METAR KMGW 212353Z 20003KT 10SM BKN043 BKN070 22/20 A3008 RMK AO2 SLP177 60009 T02220200 10250 20222 53001

More Conditions Fewer Conditions

Pressure 30.06 in
Visibility 10.0 miles
Clouds Mostly Cloudy 4300 ft
Mostly Cloudy 7000 ft
Dew Point 73 °F
Humidity 97%
Rainfall 0.12 in
Snow Depth Not available.
UV 0 out of 12
Pollen 9.00 out of 12
Air Quality Not available.
Flu Activity Not available.
METAR KMGW 212353Z 20003KT 10SM BKN043 BKN070 22/20 A3008 RMK AO2 SLP177 60009 T02220200 10250 20222 53001

More Conditions Fewer Conditions

10-Day Weather Forecast

Almanac

Astronomy

Aug. 21, 2014 Rise Set
Actual Time 6:38 AM EDT 8:07 PM EDT
Civil Twilight 6:10 AM EDT 8:36 PM EDT
Nautical Twilight 5:36 AM EDT 9:10 PM EDT
Astronomical Twilight 5:00 AM EDT 9:45 PM EDT
Moon 3:07 AM EDT (8/21) 5:35 PM EDT (8/21)
Length of Visible Light 14h 25m
Length of Day
13h 29m
Tomorrow will be 2m 22s shorter.
Waning Crescent, 11% of the Moon is Illuminated
Today
Waning Crescent
Aug 25
New
Sep 2
First Quarter
Sep 8
Full
Sep 15
Last Quarter

Today's Extremes

State Highs State Lows

Community

WunderPhotos

Upload Photos

1,746,065 photos uploaded!

Nearby

Snow Depth

Station Depth Elevation
No new snow has been reported.

Earthquake Activity

City Distance Mag. Time & Date
No recent earthquake activity has been reported nearby.
Minimum magnitude displayed is 2.5.

Coastal Water Temperatures

Place Temperature
No Stations Reporting

Nearby Weather Stations